Time;durP1;ratioP1;P1;durP2;ratioP2;P2;SDS_P1;SDS_P2;PMS_P1;PMS_P2;Temp;Humidity;BMP_temperature;BMP_pressure;BME280_temperature;BME280_humidity;BME280_pressure;Samples;Min_cycle;Max_cycle;Signal;HPM_P1;HPM_P2
2021/06/13 00:00:27;;;;;;;5.77;4.50;;;;;;;11.30;79.18;68863.31;5102762;28;21036;-74
2021/06/13 00:02:53;;;;;;;6.20;3.90;;;;;;;11.30;79.00;68941.69;5102785;28;20736;-73
2021/06/13 00:05:19;;;;;;;8.80;4.13;;;;;;;11.22;79.26;68809.72;5103361;27;20278;-74
2021/06/13 00:07:45;;;;;;;6.87;4.13;;;;;;;11.12;79.19;68617.00;5103283;28;20267;-74
2021/06/13 00:10:16;;;;;;;7.37;4.43;;;;;;;11.13;79.02;68711.50;5103064;28;20210;-73
2021/06/13 00:12:42;;;;;;;7.03;4.87;;;;;;;11.07;79.03;68461.34;5102622;28;20217;-73
2021/06/13 00:15:12;;;;;;;5.17;4.27;;;;;;;11.06;78.83;68382.44;5102842;28;20248;-74
2021/06/13 00:17:38;;;;;;;5.80;4.53;;;;;;;11.08;78.38;68223.53;5102473;28;20224;-73
2021/06/13 00:20:08;;;;;;;8.33;4.43;;;;;;;11.09;78.21;68253.22;5102902;28;20201;-74
2021/06/13 00:22:33;;;;;;;9.23;4.17;;;;;;;11.06;78.21;68105.16;5102736;28;20210;-74
2021/06/13 00:24:59;;;;;;;6.07;5.03;;;;;;;11.03;78.55;68072.53;5102650;28;20235;-73
2021/06/13 00:27:27;;;;;;;7.23;4.03;;;;;;;11.03;78.80;68231.19;5102792;28;20217;-74
2021/06/13 00:29:54;;;;;;;7.27;4.63;;;;;;;10.93;78.89;68105.41;5103878;28;20233;-75
2021/06/13 00:32:31;;;;;;;8.17;5.10;;;;;;;10.86;79.51;68284.28;5104663;28;20664;-74
2021/06/13 00:34:57;;;;;;;13.10;5.63;;;;;;;10.81;79.72;68555.56;5103794;28;20797;-74
2021/06/13 00:37:22;;;;;;;6.90;4.77;;;;;;;10.75;80.38;68781.59;5102849;28;20244;-74
2021/06/13 00:39:48;;;;;;;10.23;5.17;;;;;;;10.71;80.32;69059.78;5102612;28;20286;-74
2021/06/13 00:42:14;;;;;;;8.37;5.00;;;;;;;10.72;80.34;69351.13;5102581;28;20290;-74
2021/06/13 00:44:41;;;;;;;10.93;4.73;;;;;;;10.79;80.85;69889.47;5102069;28;20822;-73
2021/06/13 00:47:07;;;;;;;6.83;4.43;;;;;;;10.92;80.42;70387.25;5102690;28;20213;-73
2021/06/13 00:49:33;;;;;;;7.27;5.13;;;;;;;10.91;80.25;70290.75;5102918;28;20238;-74
2021/06/13 00:51:59;;;;;;;7.47;5.03;;;;;;;10.83;80.66;70249.34;5104488;28;20633;-74
2021/06/13 00:54:27;;;;;;;11.67;4.90;;;;;;;10.72;81.25;70317.56;5106758;28;21045;-75
2021/06/13 00:56:53;;;;;;;10.37;5.43;;;;;;;10.74;81.59;70811.75;5106617;28;20216;-74
2021/06/13 00:59:20;;;;;;;8.40;5.00;;;;;;;10.72;81.92;71177.97;5105919;28;20206;-74
2021/06/13 01:01:47;;;;;;;6.40;4.97;;;;;;;10.65;82.24;71365.72;5106284;28;20677;-73
2021/06/13 01:04:13;;;;;;;5.63;4.47;;;;;;;10.75;82.26;71976.81;5106415;27;20230;-72
2021/06/13 01:06:48;;;;;;;9.43;5.10;;;;;;;10.60;82.87;71818.88;5106769;27;20209;-74
2021/06/13 01:09:17;;;;;;;8.00;5.10;;;;;;;10.60;82.97;72212.22;5106836;27;21194;-72
2021/06/13 01:11:49;;;;;;;14.77;5.23;;;;;;;10.56;82.98;72471.59;5106178;28;20242;-74
2021/06/13 01:14:23;;;;;;;12.23;5.53;;;;;;;10.52;83.46;72651.91;5105516;28;20645;-73
2021/06/13 01:17:02;;;;;;;12.10;5.60;;;;;;;10.53;83.44;72868.28;5106446;27;20230;-74
2021/06/13 01:19:41;;;;;;;8.83;5.20;;;;;;;10.55;83.23;73087.91;5106498;28;20216;-74
2021/06/13 01:22:22;;;;;;;8.17;5.03;;;;;;;10.45;83.39;72980.03;5106021;28;20206;-74
2021/06/13 01:25:03;;;;;;;7.50;4.97;;;;;;;10.39;83.39;72940.78;5106297;28;20230;-74
2021/06/13 01:27:44;;;;;;;10.50;5.53;;;;;;;10.30;83.53;72894.41;5105759;28;20210;-73
2021/06/13 01:30:11;;;;;;;5.50;4.20;;;;;;;10.31;83.82;73185.91;5105868;28;20210;-74
2021/06/13 01:32:37;;;;;;;7.00;5.10;;;;;;;10.33;83.91;73559.03;5105195;28;20936;-73
2021/06/13 01:35:06;;;;;;;10.33;5.00;;;;;;;10.44;83.94;73900.94;5106172;28;20230;-74
2021/06/13 01:37:35;;;;;;;8.37;5.07;;;;;;;10.46;83.37;73914.50;5105940;28;20645;-74
2021/06/13 01:40:06;;;;;;;10.50;5.67;;;;;;;10.45;83.48;73832.22;5105646;28;20211;-73
2021/06/13 01:42:32;;;;;;;11.10;5.97;;;;;;;10.43;83.55;73928.19;5105064;28;20209;-75
2021/06/13 01:45:03;;;;;;;9.07;5.43;;;;;;;10.42;83.55;73973.56;5105411;28;20222;-74
2021/06/13 01:47:31;;;;;;;6.60;4.80;;;;;;;10.51;83.28;74291.66;5105404;28;20271;-74
2021/06/13 01:49:58;;;;;;;12.00;5.73;;;;;;;10.48;83.52;74224.94;5105359;28;20199;-74
2021/06/13 01:52:27;;;;;;;10.77;5.13;;;;;;;10.43;83.63;74223.75;5105334;28;20217;-73
2021/06/13 01:54:55;;;;;;;16.63;6.13;;;;;;;10.43;83.72;74441.53;5105392;28;20593;-73
2021/06/13 01:57:22;;;;;;;9.97;5.80;;;;;;;10.44;84.08;74611.31;5105198;28;20206;-74
2021/06/13 01:59:49;;;;;;;10.60;5.20;;;;;;;10.42;84.18;74837.56;5105032;28;20225;-74
2021/06/13 02:02:17;;;;;;;12.23;5.57;;;;;;;10.42;84.42;74989.91;5104767;27;20204;-74
2021/06/13 02:04:45;;;;;;;11.40;5.37;;;;;;;10.45;84.23;75253.13;5105143;27;20291;-74
2021/06/13 02:07:13;;;;;;;7.87;4.83;;;;;;;10.44;84.44;75257.00;5105564;27;20263;-74
2021/06/13 02:09:40;;;;;;;13.60;6.93;;;;;;;10.40;84.41;75335.44;5105780;27;20212;-74
2021/06/13 02:12:08;;;;;;;7.13;5.40;;;;;;;10.41;84.72;75424.28;5104850;27;20205;-74
2021/06/13 02:14:35;;;;;;;10.13;5.57;;;;;;;10.46;84.10;75485.88;5104836;27;20710;-74
2021/06/13 02:17:02;;;;;;;9.47;5.43;;;;;;;10.44;84.50;75488.47;5104666;28;20729;-74
2021/06/13 02:19:30;;;;;;;9.80;5.47;;;;;;;10.40;84.40;75498.19;5105333;28;20211;-74
2021/06/13 02:21:58;;;;;;;10.27;5.70;;;;;;;10.34;85.01;75610.94;5104870;28;20217;-73
2021/06/13 02:24:27;;;;;;;8.50;5.60;;;;;;;10.33;84.92;75736.72;5104805;28;20234;-74
2021/06/13 02:26:55;;;;;;;9.47;5.90;;;;;;;10.27;84.82;75634.88;5104333;28;20274;-74
2021/06/13 02:29:22;;;;;;;8.57;5.37;;;;;;;10.28;84.74;75768.41;5104790;28;20214;-73
2021/06/13 02:31:49;;;;;;;10.40;6.03;;;;;;;10.22;84.44;75603.06;5105022;28;20208;-74
2021/06/13 02:34:19;;;;;;;10.63;5.40;;;;;;;10.12;84.94;75496.72;5104696;28;21221;-73
2021/06/13 02:36:47;;;;;;;7.60;4.80;;;;;;;10.01;85.56;75511.59;5104793;28;20600;-74
2021/06/13 02:39:14;;;;;;;9.03;5.17;;;;;;;9.99;85.44;75666.41;5104703;28;20203;-74
2021/06/13 02:41:40;;;;;;;10.77;5.93;;;;;;;9.97;85.17;75814.78;5104169;28;20207;-73
2021/06/13 02:44:06;;;;;;;12.10;5.60;;;;;;;9.96;85.55;75911.97;5104462;28;20226;-74
2021/06/13 02:46:32;;;;;;;10.00;5.80;;;;;;;9.94;85.48;76047.34;5104523;28;20215;-74
2021/06/13 02:48:58;;;;;;;10.77;5.47;;;;;;;9.96;85.70;76285.19;5104401;28;20202;-74
2021/06/13 02:51:33;;;;;;;12.80;5.33;;;;;;;9.97;85.71;76412.84;5104840;28;20206;-74
2021/06/13 02:54:01;;;;;;;6.73;5.17;;;;;;;9.91;85.85;76506.69;5103725;28;20224;-73
2021/06/13 02:56:32;;;;;;;9.63;6.33;;;;;;;9.92;86.09;76679.09;5104084;28;20701;-73
2021/06/13 02:59:06;;;;;;;7.30;4.53;;;;;;;9.97;85.94;76858.72;5104186;28;20206;-73
2021/06/13 03:01:33;;;;;;;10.43;6.03;;;;;;;9.91;86.08;76872.84;5104621;28;20218;-74
2021/06/13 03:04:01;;;;;;;13.97;5.40;;;;;;;9.91;86.12;77023.19;5103277;28;20672;-74
2021/06/13 03:06:31;;;;;;;10.17;5.13;;;;;;;9.87;86.08;76916.78;5106679;27;20210;-73
2021/06/13 03:08:57;;;;;;;8.63;5.20;;;;;;;9.83;85.75;76895.94;5124025;27;20213;-73
2021/06/13 03:11:24;;;;;;;6.93;4.77;;;;;;;9.80;85.93;76928.25;5123071;27;20236;-73
2021/06/13 03:13:52;;;;;;;9.23;4.83;;;;;;;9.83;86.13;77022.94;5122641;28;20560;-73
2021/06/13 03:16:20;;;;;;;12.60;5.60;;;;;;;9.80;85.80;76969.72;5116368;28;20223;-74
2021/06/13 03:18:48;;;;;;;6.37;4.60;;;;;;;9.82;85.97;77006.06;5104427;28;20302;-74
2021/06/13 03:21:15;;;;;;;9.17;5.27;;;;;;;9.84;85.63;77008.06;5104106;28;20208;-73
2021/06/13 03:23:42;;;;;;;7.67;5.07;;;;;;;9.79;85.70;76934.69;5103428;28;20214;-73
2021/06/13 03:26:09;;;;;;;7.80;4.97;;;;;;;9.80;85.62;77008.59;5104044;28;20252;-74
2021/06/13 03:28:36;;;;;;;15.67;6.23;;;;;;;9.80;85.54;77005.34;5103549;28;20205;-73
2021/06/13 03:31:04;;;;;;;8.47;5.27;;;;;;;9.84;85.49;77156.44;5104087;28;20215;-74
2021/06/13 03:33:32;;;;;;;8.83;5.30;;;;;;;9.77;85.93;76963.13;5103669;27;20214;-74
2021/06/13 03:35:59;;;;;;;8.37;4.97;;;;;;;9.74;85.94;76998.69;5103305;28;20692;-74
2021/06/13 03:38:28;;;;;;;12.03;5.30;;;;;;;9.75;85.52;77110.78;5103595;28;20747;-73
2021/06/13 03:40:55;;;;;;;8.97;5.23;;;;;;;9.79;85.75;77142.03;5103243;28;20211;-74
2021/06/13 03:43:23;;;;;;;8.37;5.43;;;;;;;9.71;85.64;76968.13;5103302;28;21169;-74
2021/06/13 03:45:50;;;;;;;6.60;5.10;;;;;;;9.80;85.22;77252.22;5103619;28;20965;-74
2021/06/13 03:48:19;;;;;;;11.13;5.77;;;;;;;9.79;85.32;77056.50;5103603;28;20221;-74
2021/06/13 03:50:48;;;;;;;10.57;4.87;;;;;;;9.81;84.95;77032.56;5103560;28;20205;-74
2021/06/13 03:53:15;;;;;;;11.47;5.03;;;;;;;9.83;84.95;77007.38;5102785;28;20205;-73
2021/06/13 03:55:42;;;;;;;8.97;5.57;;;;;;;9.85;85.02;77082.63;5103222;28;20229;-73
2021/06/13 03:58:09;;;;;;;6.40;4.93;;;;;;;9.85;85.07;77067.06;5103335;28;20201;-74
2021/06/13 04:00:37;;;;;;;11.07;5.07;;;;;;;9.83;84.79;77069.59;5103173;28;20290;-74
2021/06/13 04:03:05;;;;;;;8.57;5.90;;;;;;;9.82;84.94;77101.94;5102897;28;20228;-74
2021/06/13 04:05:33;;;;;;;9.13;5.33;;;;;;;9.83;85.60;77289.91;5103260;28;20362;-73
2021/06/13 04:08:00;;;;;;;8.37;5.60;;;;;;;9.85;85.52;77479.22;5102732;28;20204;-73
2021/06/13 04:10:27;;;;;;;9.93;5.23;;;;;;;9.91;84.94;77603.88;5103297;28;20270;-74
2021/06/13 04:12:55;;;;;;;9.53;5.57;;;;;;;9.91;85.36;77606.47;5102918;28;20211;-73
2021/06/13 04:15:22;;;;;;;14.90;5.90;;;;;;;9.93;85.27;77738.78;5102839;28;20732;-74
2021/06/13 04:17:50;;;;;;;6.80;4.90;;;;;;;9.94;85.08;77721.31;5103076;28;20279;-73
2021/06/13 04:20:16;;;;;;;11.97;5.43;;;;;;;10.05;85.52;78137.31;5102749;28;20274;-73
2021/06/13 04:22:44;;;;;;;8.60;5.63;;;;;;;10.05;84.98;77968.75;5102028;28;20208;-73
2021/06/13 04:25:13;;;;;;;9.47;5.17;;;;;;;10.10;84.71;77981.31;5107945;28;20229;-74
2021/06/13 04:27:41;;;;;;;11.00;5.40;;;;;;;10.14;85.16;78072.28;5115669;27;20206;-74
2021/06/13 04:30:09;;;;;;;12.83;5.70;;;;;;;10.13;84.52;77915.34;5114781;27;20208;-73
2021/06/13 04:32:35;;;;;;;10.50;6.00;;;;;;;10.22;84.79;78188.06;5109198;28;20232;-74
2021/06/13 04:35:02;;;;;;;12.37;4.77;;;;;;;10.22;84.52;78142.03;5109315;27;20225;-74
2021/06/13 04:37:29;;;;;;;11.87;5.87;;;;;;;10.27;85.04;78361.53;5108374;27;20319;-73
2021/06/13 04:39:56;;;;;;;10.40;5.47;;;;;;;10.29;85.01;78408.34;5109223;27;21162;-74
2021/06/13 04:42:23;;;;;;;9.50;5.67;;;;;;;10.31;84.68;78335.16;5108771;27;20267;-74
2021/06/13 04:44:49;;;;;;;8.60;5.27;;;;;;;10.39;84.81;78677.44;5109122;28;20225;-74
2021/06/13 04:47:16;;;;;;;9.90;5.17;;;;;;;10.41;85.00;78784.66;5108449;28;20201;-74
2021/06/13 04:49:43;;;;;;;7.77;5.40;;;;;;;10.43;85.17;78995.00;5109645;27;20289;-74
2021/06/13 04:52:13;;;;;;;11.97;5.67;;;;;;;10.41;85.10;78864.44;5108627;28;20235;-74
2021/06/13 04:54:51;;;;;;;8.87;5.80;;;;;;;10.42;84.72;78798.28;5108173;28;20221;-73
2021/06/13 04:57:44;;;;;;;6.80;4.50;;;;;;;10.54;84.66;79001.47;5108252;28;20281;-73
2021/06/13 05:00:11;;;;;;;7.80;5.50;;;;;;;10.62;84.57;79061.00;5104110;27;20673;-74
2021/06/13 05:02:38;;;;;;;7.90;5.37;;;;;;;10.61;83.86;78665.69;5108269;28;20209;-73
2021/06/13 05:05:06;;;;;;;11.13;5.07;;;;;;;10.66;84.15;78823.06;5108485;27;20227;-74
2021/06/13 05:07:32;;;;;;;7.83;5.03;;;;;;;10.83;84.11;79278.53;5108973;28;20207;-74
2021/06/13 05:09:59;;;;;;;10.70;5.97;;;;;;;10.99;84.07;79697.88;5109139;28;20210;-75
2021/06/13 05:12:26;;;;;;;13.97;6.07;;;;;;;11.11;83.66;79807.91;5108367;27;20210;-74
2021/06/13 05:14:53;;;;;;;10.87;5.27;;;;;;;11.22;82.02;78969.06;5108542;27;20233;-73
2021/06/13 05:17:19;;;;;;;10.40;4.90;;;;;;;11.28;81.41;78504.88;5108923;27;20233;-74
2021/06/13 05:19:45;;;;;;;9.53;5.33;;;;;;;11.42;82.11;78926.06;5108401;28;20206;-74
2021/06/13 05:22:12;;;;;;;10.00;5.00;;;;;;;11.52;81.27;78562.63;5107927;27;20633;-74
2021/06/13 05:24:38;;;;;;;9.73;4.73;;;;;;;11.53;80.24;77684.59;5108362;27;20221;-73
2021/06/13 05:27:05;;;;;;;9.27;5.03;;;;;;;11.64;79.67;77512.09;5109006;27;20263;-74
2021/06/13 05:29:34;;;;;;;7.33;5.17;;;;;;;11.65;79.80;77159.22;5108050;27;20203;-73
2021/06/13 05:32:00;;;;;;;8.23;6.13;;;;;;;11.61;80.01;76814.06;5108272;27;20209;-74
2021/06/13 05:34:26;;;;;;;9.80;5.07;;;;;;;11.67;79.79;76915.59;5108542;27;20228;-74
2021/06/13 05:36:53;;;;;;;9.00;5.17;;;;;;;11.73;79.39;76775.34;5106762;27;20226;-73
2021/06/13 05:39:19;;;;;;;9.37;5.30;;;;;;;11.77;78.62;76369.19;5105444;28;20207;-74
2021/06/13 05:41:45;;;;;;;9.40;5.30;;;;;;;11.87;78.97;76462.94;5105203;28;20212;-74
2021/06/13 05:44:12;;;;;;;7.07;5.10;;;;;;;11.93;79.29;76779.63;5105158;28;20229;-74
2021/06/13 05:46:40;;;;;;;6.40;5.03;;;;;;;11.98;78.42;76327.91;5105250;28;20221;-74
2021/06/13 05:49:06;;;;;;;7.20;4.90;;;;;;;12.05;77.98;75960.00;5104607;28;20598;-74
2021/06/13 05:51:33;;;;;;;9.20;5.57;;;;;;;12.06;77.21;75209.84;5104826;28;20280;-74
2021/06/13 05:53:59;;;;;;;9.97;4.70;;;;;;;12.07;76.97;74961.53;5104844;28;20491;-73
2021/06/13 05:56:25;;;;;;;7.93;5.00;;;;;;;12.08;77.28;74955.03;5104970;28;20716;-74
2021/06/13 05:58:52;;;;;;;9.57;5.23;;;;;;;12.04;77.36;74586.56;5104490;28;20206;-73
2021/06/13 06:01:18;;;;;;;7.10;4.37;;;;;;;12.05;75.92;73958.13;5104918;28;20208;-73
2021/06/13 06:03:46;;;;;;;4.73;3.93;;;;;;;12.09;77.27;74340.16;5104723;28;20291;-74
2021/06/13 06:06:12;;;;;;;11.33;4.77;;;;;;;12.12;76.83;74351.81;5104730;28;20262;-74
2021/06/13 06:08:38;;;;;;;8.73;4.50;;;;;;;12.22;76.95;74598.63;5104635;28;20253;-74
2021/06/13 06:11:06;;;;;;;7.70;4.77;;;;;;;12.36;76.40;74792.81;5106144;27;20671;-77
2021/06/13 06:13:32;;;;;;;8.47;4.60;;;;;;;12.44;76.14;74831.72;5103183;27;20217;-76
2021/06/13 06:15:59;;;;;;;9.93;5.03;;;;;;;12.43;74.50;73275.16;5104635;27;20226;-76
2021/06/13 06:18:25;;;;;;;14.37;4.77;;;;;;;12.46;74.13;73047.50;5105115;27;20213;-75
2021/06/13 06:20:53;;;;;;;11.17;4.90;;;;;;;12.54;75.12;73340.41;5105915;27;20207;-76
2021/06/13 06:23:19;;;;;;;6.67;4.30;;;;;;;12.71;75.85;74371.41;5105199;27;20220;-76
2021/06/13 06:25:45;;;;;;;5.87;4.00;;;;;;;12.80;73.82;73390.19;5104940;27;20231;-76
2021/06/13 06:28:12;;;;;;;5.67;4.23;;;;;;;12.90;74.95;73655.25;5105117;27;20210;-76
2021/06/13 06:30:38;;;;;;;6.37;3.87;;;;;;;12.93;74.00;73098.91;5104610;27;20688;-74
2021/06/13 06:33:05;;;;;;;7.40;4.37;;;;;;;13.09;74.49;73764.63;5105485;27;20209;-75
2021/06/13 06:35:31;;;;;;;8.70;4.73;;;;;;;13.10;73.50;73154.75;5105526;27;20227;-77
2021/06/13 06:37:59;;;;;;;7.70;4.50;;;;;;;13.11;71.97;71846.88;5104237;27;20226;-75
2021/06/13 06:40:25;;;;;;;10.80;4.07;;;;;;;13.16;72.29;71628.66;5104887;27;20211;-75
2021/06/13 06:42:52;;;;;;;8.93;4.40;;;;;;;13.31;71.84;71852.19;5104782;27;20206;-76
2021/06/13 06:45:19;;;;;;;6.87;4.13;;;;;;;13.34;72.24;71507.09;5104392;27;20677;-75
2021/06/13 06:47:47;;;;;;;7.03;4.33;;;;;;;13.37;71.61;70804.78;5105008;27;20203;-75
2021/06/13 06:50:15;;;;;;;10.60;4.53;;;;;;;13.37;70.64;70138.59;5103373;28;20222;-75
2021/06/13 06:52:41;;;;;;;6.33;3.90;;;;;;;13.37;70.57;69714.44;5104182;27;20206;-75
2021/06/13 06:55:10;;;;;;;6.17;3.77;;;;;;;13.39;70.57;69634.19;5104513;27;20281;-74
2021/06/13 06:57:42;;;;;;;4.00;3.27;;;;;;;13.36;71.08;69442.66;5104356;27;20231;-75
2021/06/13 07:00:10;;;;;;;6.13;3.73;;;;;;;13.40;69.29;68622.75;5104172;27;20220;-74
2021/06/13 07:02:36;;;;;;;10.67;4.00;;;;;;;13.40;69.37;68001.06;5104140;27;20198;-74
2021/06/13 07:05:03;;;;;;;6.07;4.07;;;;;;;13.50;69.78;68359.41;5103793;27;20650;-75
2021/06/13 07:07:29;;;;;;;8.13;3.97;;;;;;;13.63;69.76;68850.34;5104377;27;20282;-75
2021/06/13 07:09:55;;;;;;;6.17;4.07;;;;;;;13.78;69.27;69023.13;5103999;27;20634;-75
2021/06/13 07:12:25;;;;;;;6.90;3.57;;;;;;;13.85;68.32;68169.81;5104387;27;20211;-76
2021/06/13 07:14:51;;;;;;;8.47;3.57;;;;;;;13.89;67.92;67854.34;5104293;27;20219;-75
2021/06/13 07:17:18;;;;;;;8.30;4.17;;;;;;;13.96;67.90;67726.59;5103769;27;20284;-76
2021/06/13 07:19:44;;;;;;;8.17;4.63;;;;;;;13.99;68.67;67743.09;5104309;27;20254;-74
2021/06/13 07:22:10;;;;;;;5.10;3.57;;;;;;;13.92;67.66;66928.69;5103518;27;20236;-74
2021/06/13 07:24:37;;;;;;;4.47;3.30;;;;;;;14.03;67.87;67180.28;5103455;27;20223;-76
2021/06/13 07:27:04;;;;;;;10.17;4.70;;;;;;;14.01;66.66;66048.44;5104266;27;20211;-74
2021/06/13 07:29:31;;;;;;;7.07;3.93;;;;;;;14.04;68.05;66908.13;5104066;27;21021;-74
2021/06/13 07:31:58;;;;;;;6.33;4.00;;;;;;;14.17;66.83;66599.72;5103037;28;20842;-74
2021/06/13 07:34:24;;;;;;;6.53;3.43;;;;;;;14.24;66.85;66537.47;5102853;28;20286;-74
2021/06/13 07:36:50;;;;;;;5.67;3.63;;;;;;;14.39;65.71;65765.16;5103095;28;20226;-74
2021/06/13 07:39:17;;;;;;;6.87;3.80;;;;;;;14.51;67.06;66135.56;5102922;28;20263;-75
2021/06/13 07:41:43;;;;;;;11.17;4.40;;;;;;;14.55;66.82;66267.16;5102958;28;20203;-73
2021/06/13 07:44:10;;;;;;;6.03;4.50;;;;;;;14.46;66.46;65669.50;5102286;28;20666;-73
2021/06/13 07:46:38;;;;;;;7.00;3.90;;;;;;;14.59;65.79;65628.41;5103147;28;20322;-73
2021/06/13 07:49:05;;;;;;;6.53;3.77;;;;;;;14.35;64.79;63478.09;5102880;28;20210;-73
2021/06/13 07:51:31;;;;;;;7.33;3.53;;;;;;;14.42;66.75;64833.94;5102550;28;20196;-73
2021/06/13 07:53:57;;;;;;;6.07;4.07;;;;;;;14.44;64.33;64050.09;5102098;28;20623;-73
2021/06/13 07:56:24;;;;;;;5.17;3.40;;;;;;;14.42;64.64;63205.28;5103198;27;20204;-73
2021/06/13 07:58:50;;;;;;;5.50;3.20;;;;;;;14.39;63.71;61901.28;5100988;28;21164;-73
2021/06/13 08:01:17;;;;;;;6.07;3.50;;;;;;;14.38;65.02;62160.31;5102860;28;20203;-72
2021/06/13 08:03:44;;;;;;;8.13;3.63;;;;;;;14.52;64.13;62523.47;5102425;28;20551;-73
2021/06/13 08:06:11;;;;;;;5.83;2.97;;;;;;;14.49;60.42;60288.47;5101675;28;20725;-72
2021/06/13 08:08:37;;;;;;;4.27;3.10;;;;;;;14.52;62.11;60239.56;5101737;28;20730;-73
2021/06/13 08:11:04;;;;;;;4.57;3.57;;;;;;;14.61;63.16;61229.09;5102857;28;20203;-73
2021/06/13 08:13:31;;;;;;;6.60;3.40;;;;;;;14.75;62.27;61389.13;5102028;28;20591;-73
2021/06/13 08:15:58;;;;;;;5.87;2.50;;;;;;;14.81;60.97;60128.28;5102735;28;21186;-73
2021/06/13 08:18:24;;;;;;;3.40;2.87;;;;;;;14.90;58.75;59180.19;5101591;28;20278;-73
2021/06/13 08:20:52;;;;;;;3.37;2.77;;;;;;;14.76;59.16;57897.38;5102410;28;20609;-73
2021/06/13 08:23:18;;;;;;;3.40;3.00;;;;;;;14.86;60.71;59015.34;5101900;28;20204;-72
2021/06/13 08:25:45;;;;;;;6.60;3.23;;;;;;;15.04;59.33;58970.78;5101607;28;20226;-73
2021/06/13 08:28:12;;;;;;;4.77;3.20;;;;;;;15.11;57.35;57796.22;5103134;28;20207;-73
2021/06/13 08:30:38;;;;;;;5.43;3.23;;;;;;;14.81;57.85;56014.63;5103066;28;20793;-73
2021/06/13 08:33:05;;;;;;;4.80;3.07;;;;;;;14.52;56.61;54389.66;5103136;28;20215;-76
2021/06/13 08:35:31;;;;;;;7.37;3.00;;;;;;;14.71;59.75;56267.88;5102226;28;20238;-73
2021/06/13 08:38:03;;;;;;;7.17;3.47;;;;;;;15.04;60.56;58666.38;5101940;28;20308;-73
2021/06/13 08:40:30;;;;;;;8.53;3.10;;;;;;;15.15;58.70;57869.97;5102284;28;20685;-73
2021/06/13 08:42:56;;;;;;;3.53;2.57;;;;;;;15.18;57.26;57074.81;5102142;28;20206;-74
2021/06/13 08:45:24;;;;;;;7.83;2.60;;;;;;;15.13;56.12;55641.72;5101817;28;20260;-73
2021/06/13 08:47:54;;;;;;;5.27;3.10;;;;;;;15.39;57.82;57063.88;5102422;28;20213;-74
2021/06/13 08:50:20;;;;;;;3.57;2.70;;;;;;;15.41;56.51;56506.41;5101819;28;20211;-75
2021/06/13 08:52:48;;;;;;;5.23;2.53;;;;;;;15.15;58.40;56218.81;5101697;28;20595;-73
2021/06/13 08:55:16;;;;;;;6.10;2.80;;;;;;;15.19;57.90;56207.09;5102144;28;20227;-74
2021/06/13 08:57:43;;;;;;;3.90;2.73;;;;;;;15.09;55.30;54577.75;5101590;28;20261;-74
2021/06/13 09:00:11;;;;;;;4.30;2.47;;;;;;;15.36;56.42;55637.91;5102338;28;20806;-75
2021/06/13 09:02:38;;;;;;;4.47;3.13;;;;;;;15.33;56.28;55195.50;5101150;28;20664;-73
2021/06/13 09:05:06;;;;;;;3.90;2.33;;;;;;;15.28;55.38;54753.84;5102047;28;20227;-73
2021/06/13 09:07:34;;;;;;;6.23;3.00;;;;;;;15.52;55.80;55423.44;5102168;28;20714;-73
2021/06/13 09:10:08;;;;;;;5.17;2.67;;;;;;;15.86;55.57;57041.66;5102155;28;20314;-74
2021/06/13 09:12:36;;;;;;;2.93;2.60;;;;;;;16.03;56.49;57789.44;5103021;28;20196;-74
2021/06/13 09:15:04;;;;;;;8.63;3.57;;;;;;;15.54;56.28;55072.03;5105790;28;20219;-73
2021/06/13 09:17:30;;;;;;;6.20;2.70;;;;;;;15.55;54.76;54531.47;5105495;28;20234;-73
2021/06/13 09:20:17;;;;;;;3.40;2.43;;;;;;;15.63;55.00;54723.75;5106095;28;20213;-74
2021/06/13 09:23:05;;;;;;;3.20;2.20;;;;;;;15.44;55.79;53710.22;5105435;28;20294;-74
2021/06/13 09:25:31;;;;;;;5.47;2.53;;;;;;;15.60;56.59;55168.84;5105724;28;20322;-74
2021/06/13 09:28:07;;;;;;;4.10;2.30;;;;;;;15.83;55.30;55968.16;5109278;28;20702;-74
2021/06/13 09:30:35;;;;;;;6.13;2.60;;;;;;;15.97;55.54;56010.38;5128394;28;20194;-73
2021/06/13 09:33:03;;;;;;;6.20;2.60;;;;;;;16.16;53.35;55663.25;5130954;28;20199;-73
2021/06/13 09:35:31;;;;;;;3.80;2.33;;;;;;;16.27;54.60;56035.91;5129441;28;20215;-74
2021/06/13 09:38:15;;;;;;;5.30;2.63;;;;;;;16.50;52.55;55854.03;5128719;28;20207;-73
2021/06/13 09:40:45;;;;;;;6.13;3.07;;;;;;;16.64;52.28;55893.63;5106539;28;20293;-74
2021/06/13 09:43:18;;;;;;;3.43;2.50;;;;;;;16.36;52.96;54473.44;5108321;28;20257;-75
2021/06/13 09:45:56;;;;;;;6.43;2.83;;;;;;;16.22;54.13;54296.66;5108774;28;20220;-74
2021/06/13 09:48:23;;;;;;;4.10;2.53;;;;;;;15.87;54.55;53081.25;5108075;28;20214;-74
2021/06/13 09:50:51;;;;;;;4.33;2.70;;;;;;;15.97;56.04;54307.88;5105477;28;20207;-74
2021/06/13 09:53:45;;;;;;;5.40;3.27;;;;;;;16.13;53.85;54317.28;5104939;28;20208;-74
2021/06/13 09:56:15;;;;;;;6.53;3.07;;;;;;;16.40;54.50;55597.81;5105199;28;20204;-73
2021/06/13 09:59:08;;;;;;;6.37;3.77;;;;;;;16.54;54.61;56256.63;5105287;28;20223;-74
2021/06/13 10:01:38;;;;;;;4.77;3.00;;;;;;;16.33;54.39;54843.03;5102352;28;20226;-74
2021/06/13 10:04:06;;;;;;;6.43;2.70;;;;;;;16.44;53.35;54869.59;5105091;28;20222;-74
2021/06/13 10:06:35;;;;;;;5.43;2.83;;;;;;;16.57;53.43;54712.13;5105374;28;20608;-74
2021/06/13 10:09:04;;;;;;;4.00;2.73;;;;;;;16.63;51.71;54206.66;5104700;28;20314;-74
2021/06/13 10:11:30;;;;;;;5.00;2.80;;;;;;;16.59;52.63;54083.56;5104652;28;20240;-75
2021/06/13 10:13:59;;;;;;;5.77;2.60;;;;;;;16.60;52.37;53831.78;5104514;28;20620;-74
2021/06/13 10:16:35;;;;;;;4.83;2.33;;;;;;;16.40;52.26;52782.47;5104404;28;20633;-73
2021/06/13 10:19:07;;;;;;;4.70;2.70;;;;;;;16.53;51.70;52856.44;5104294;28;20218;-75
2021/06/13 10:21:36;;;;;;;3.67;2.67;;;;;;;16.61;52.52;53339.94;5104112;28;20681;-74
2021/06/13 10:24:06;;;;;;;4.23;2.70;;;;;;;16.75;52.69;54092.41;5104364;28;20231;-74
2021/06/13 10:26:33;;;;;;;3.27;2.70;;;;;;;16.60;51.96;52825.94;5104775;28;20210;-74
2021/06/13 10:28:59;;;;;;;5.57;2.77;;;;;;;16.42;52.06;52028.91;5104795;28;20195;-75
2021/06/13 10:31:26;;;;;;;4.57;2.67;;;;;;;16.50;52.36;52538.63;5103978;28;20251;-75
2021/06/13 10:33:54;;;;;;;4.83;2.37;;;;;;;16.72;51.71;53344.91;5104614;27;20383;-74
2021/06/13 10:36:21;;;;;;;3.80;2.43;;;;;;;16.90;50.88;53209.53;5104720;27;20204;-74
2021/06/13 10:38:47;;;;;;;3.87;2.57;;;;;;;17.23;51.32;54739.44;5104002;27;20227;-74
2021/06/13 10:41:14;;;;;;;5.37;2.17;;;;;;;17.35;49.02;54142.09;5104311;27;20253;-74
2021/06/13 10:43:43;;;;;;;5.10;2.67;;;;;;;17.31;50.36;53956.25;5104109;28;20208;-75
2021/06/13 10:46:12;;;;;;;6.63;3.03;;;;;;;17.24;50.53;53417.78;5104553;28;20245;-74
2021/06/13 10:48:41;;;;;;;2.47;2.20;;;;;;;17.33;50.69;54241.94;5104504;28;20258;-74
2021/06/13 10:51:31;;;;;;;5.13;2.70;;;;;;;17.36;50.77;54192.59;5103827;28;20702;-75
2021/06/13 10:54:22;;;;;;;4.10;2.20;;;;;;;17.36;50.15;53378.88;5103872;28;20212;-74
2021/06/13 10:56:49;;;;;;;3.63;2.50;;;;;;;17.56;50.16;54075.72;5103783;28;20240;-74
2021/06/13 10:59:18;;;;;;;3.90;3.50;;;;;;;17.72;49.04;54283.38;5104212;28;20227;-74
2021/06/13 11:02:03;;;;;;;6.20;4.53;;;;;;;17.92;48.59;54372.22;5103546;28;20284;-75
2021/06/13 11:04:47;;;;;;;5.93;3.33;;;;;;;17.90;49.10;53842.53;5103747;28;20235;-74
2021/06/13 11:07:52;;;;;;;4.47;3.00;;;;;;;18.00;50.03;54473.75;5103312;28;20569;-74
2021/06/13 11:10:21;;;;;;;5.13;3.40;;;;;;;18.24;49.00;55086.34;5103323;28;20250;-74
2021/06/13 11:12:51;;;;;;;4.17;3.20;;;;;;;17.93;47.10;52297.63;5103804;28;20242;-75
2021/06/13 11:15:51;;;;;;;5.60;2.70;;;;;;;17.74;48.86;52033.00;5104764;28;20277;-75
2021/06/13 11:18:23;;;;;;;4.00;3.10;;;;;;;17.60;49.93;51953.47;5104093;28;20224;-74
2021/06/13 11:20:53;;;;;;;4.87;2.80;;;;;;;17.94;51.03;54269.69;5106014;28;20312;-74
2021/06/13 11:23:57;;;;;;;7.73;4.70;;;;;;;18.39;49.40;55802.72;5102420;28;20747;-74
2021/06/13 11:26:39;;;;;;;3.77;2.73;;;;;;;18.54;46.94;54588.66;5102552;28;20220;-75
2021/06/13 11:29:08;;;;;;;6.17;3.30;;;;;;;18.61;45.98;54443.19;5103472;28;20285;-75
2021/06/13 11:31:34;;;;;;;3.97;2.70;;;;;;;18.34;46.17;52326.13;5102857;28;20648;-73
2021/06/13 11:34:07;;;;;;;2.70;2.20;;;;;;;18.76;45.70;54067.34;5103086;28;20224;-75
2021/06/13 11:36:35;;;;;;;4.33;2.33;;;;;;;19.96;44.64;58899.53;5102538;28;20209;-75
2021/06/13 11:39:24;;;;;;;3.70;2.87;;;;;;;20.93;42.68;61202.31;5102888;28;20222;-75